createdAt,value
2022-12-27T00:00:51.952Z,1015.29
2022-12-27T00:01:51.863Z,1015.37
2022-12-27T00:02:51.863Z,1015.27
2022-12-27T00:03:51.903Z,1015.37
2022-12-27T00:04:51.785Z,1015.42
2022-12-27T00:05:51.835Z,1015.40
2022-12-27T00:06:51.798Z,1015.47
2022-12-27T00:07:51.775Z,1015.33
2022-12-27T00:08:51.776Z,1015.41
2022-12-27T00:09:51.800Z,1015.35
2022-12-27T00:10:51.710Z,1015.42
2022-12-27T00:11:57.968Z,1015.44
2022-12-27T00:12:52.682Z,1015.39
2022-12-27T00:13:51.736Z,1015.41
2022-12-27T00:14:51.677Z,1015.44
2022-12-27T00:15:51.793Z,1015.43
2022-12-27T00:16:51.733Z,1015.46
2022-12-27T00:17:51.669Z,1015.51
2022-12-27T00:18:51.635Z,1015.52
2022-12-27T00:19:51.637Z,1015.45
2022-12-27T00:20:51.615Z,1015.51
2022-12-27T00:21:51.636Z,1015.46
2022-12-27T00:22:51.571Z,1015.49
2022-12-27T00:23:51.599Z,1015.54
2022-12-27T00:24:51.537Z,1015.56
2022-12-27T00:25:51.575Z,1015.52
2022-12-27T00:26:51.541Z,1015.54
2022-12-27T00:27:51.534Z,1015.44
2022-12-27T00:28:51.505Z,1015.52
2022-12-27T00:29:51.493Z,1015.52
2022-12-27T00:30:51.453Z,1015.61
2022-12-27T00:31:51.527Z,1015.60
2022-12-27T00:32:51.451Z,1015.65
2022-12-27T00:33:51.477Z,1015.62
2022-12-27T00:34:51.404Z,1015.61
2022-12-27T00:35:51.440Z,1015.59
2022-12-27T00:36:51.374Z,1015.64
2022-12-27T00:37:51.411Z,1015.60
2022-12-27T00:38:51.351Z,1015.56
2022-12-27T00:39:51.496Z,1015.61
2022-12-27T00:40:51.314Z,1015.65
2022-12-27T00:41:51.358Z,1015.61
2022-12-27T00:42:51.323Z,1015.60
2022-12-27T00:43:51.304Z,1015.61
2022-12-27T00:44:51.301Z,1015.57
2022-12-27T00:45:51.426Z,1015.59
2022-12-27T00:46:51.229Z,1015.57
2022-12-27T00:47:51.284Z,1015.58
2022-12-27T00:48:51.283Z,1015.57
2022-12-27T00:49:51.199Z,1015.57
2022-12-27T00:50:51.198Z,1015.56
2022-12-27T00:51:51.307Z,1015.54
2022-12-27T00:52:51.179Z,1015.55
2022-12-27T00:53:51.164Z,1015.45
2022-12-27T00:54:51.177Z,1015.52
2022-12-27T00:55:51.152Z,1015.50
2022-12-27T00:56:51.163Z,1015.52
2022-12-27T00:57:51.220Z,1015.56
2022-12-27T00:58:51.100Z,1015.59
2022-12-27T00:59:51.092Z,1015.62
2022-12-27T01:00:51.119Z,1015.62
2022-12-27T01:01:51.183Z,1015.61
2022-12-27T01:02:51.070Z,1015.62
2022-12-27T01:03:51.195Z,1015.65
2022-12-27T01:04:51.020Z,1015.67
2022-12-27T01:05:50.998Z,1015.73
2022-12-27T01:06:51.020Z,1015.65
2022-12-27T01:07:50.960Z,1015.74
2022-12-27T01:08:50.993Z,1015.73
2022-12-27T01:09:50.961Z,1015.78
2022-12-27T01:10:50.934Z,1015.75
2022-12-27T01:11:50.921Z,1015.74
2022-12-27T01:12:50.915Z,1015.75
2022-12-27T01:13:50.907Z,1015.73
2022-12-27T01:14:50.911Z,1015.74
2022-12-27T01:15:50.953Z,1015.86
2022-12-27T01:16:50.948Z,1015.81
2022-12-27T01:17:50.815Z,1015.69
2022-12-27T01:18:50.855Z,1015.77
2022-12-27T01:19:50.813Z,1015.76
2022-12-27T01:20:50.835Z,1015.88
2022-12-27T01:21:50.876Z,1015.85
2022-12-27T01:22:50.817Z,1015.87
2022-12-27T01:23:50.763Z,1015.79
2022-12-27T01:24:50.771Z,1015.74
2022-12-27T01:25:50.775Z,1015.78
2022-12-27T01:26:50.761Z,1015.78
2022-12-27T01:27:50.721Z,1015.79
2022-12-27T01:28:50.727Z,1015.81
2022-12-27T01:29:50.658Z,1015.84
2022-12-27T01:30:50.726Z,1015.87
2022-12-27T01:31:50.698Z,1015.81
2022-12-27T01:32:50.648Z,1015.86
2022-12-27T01:33:50.677Z,1015.87
2022-12-27T01:34:50.655Z,1015.87
2022-12-27T01:35:50.588Z,1015.93
2022-12-27T01:36:50.609Z,1015.86
2022-12-27T01:37:50.587Z,1015.85
2022-12-27T01:38:50.597Z,1015.86
2022-12-27T01:39:50.582Z,1015.83
2022-12-27T01:40:50.590Z,1015.82
2022-12-27T01:41:50.501Z,1015.88
2022-12-27T01:42:50.534Z,1015.84
2022-12-27T01:43:50.506Z,1015.86
2022-12-27T01:44:50.499Z,1015.84
2022-12-27T01:45:50.635Z,1015.81
2022-12-27T01:46:50.488Z,1015.82
2022-12-27T01:47:50.442Z,1015.79
2022-12-27T01:48:50.474Z,1015.79
2022-12-27T01:49:50.392Z,1015.84
2022-12-27T01:50:50.420Z,1015.77
2022-12-27T01:51:50.420Z,1015.84
2022-12-27T01:52:50.390Z,1015.84
2022-12-27T01:53:50.361Z,1015.82
2022-12-27T01:54:50.386Z,1015.91
2022-12-27T01:55:50.357Z,1015.85
2022-12-27T01:56:50.359Z,1015.90
2022-12-27T01:57:50.314Z,1015.84
2022-12-27T01:58:50.307Z,1015.87
2022-12-27T01:59:50.285Z,1015.91
2022-12-27T02:00:50.341Z,1015.94
2022-12-27T02:01:50.336Z,1015.90
2022-12-27T02:02:50.331Z,1015.90
2022-12-27T02:03:50.326Z,1015.96
2022-12-27T02:04:50.244Z,1015.97
2022-12-27T02:05:50.177Z,1015.99
2022-12-27T02:06:50.194Z,1015.96
2022-12-27T02:07:50.182Z,1015.97
2022-12-27T02:08:50.194Z,1016.00
2022-12-27T02:09:50.164Z,1015.96
2022-12-27T02:10:50.149Z,1015.83
2022-12-27T02:11:50.128Z,1015.94
2022-12-27T02:12:50.118Z,1015.96
2022-12-27T02:13:50.095Z,1015.95
2022-12-27T02:14:50.119Z,1015.95
2022-12-27T02:15:50.087Z,1015.91
2022-12-27T02:16:50.128Z,1015.97
2022-12-27T02:17:50.019Z,1015.98
2022-12-27T02:18:50.046Z,1016.12
2022-12-27T02:19:50.028Z,1015.98
2022-12-27T02:20:50.009Z,1015.94
2022-12-27T02:21:50.109Z,1015.97
2022-12-27T02:22:50.015Z,1015.97
2022-12-27T02:23:49.940Z,1016.02
2022-12-27T02:24:49.958Z,1015.97
2022-12-27T02:25:49.938Z,1015.97
2022-12-27T02:26:49.959Z,1016.00
2022-12-27T02:27:49.918Z,1016.04
2022-12-27T02:28:49.950Z,1015.93
2022-12-27T02:29:49.860Z,1015.97
2022-12-27T02:30:49.919Z,1015.99
2022-12-27T02:31:49.857Z,1016.03
2022-12-27T02:32:49.849Z,1016.03
2022-12-27T02:33:49.968Z,1016.03
2022-12-27T02:34:49.859Z,1016.08
2022-12-27T02:35:49.782Z,1016.05
2022-12-27T02:36:49.831Z,1016.05
2022-12-27T02:37:49.765Z,1016.07
2022-12-27T02:38:49.776Z,1016.08
2022-12-27T02:39:49.796Z,1016.09
2022-12-27T02:40:49.791Z,1016.09
2022-12-27T02:41:49.723Z,1016.08
2022-12-27T02:42:49.736Z,1016.07
2022-12-27T02:43:49.711Z,1016.10
2022-12-27T02:44:49.692Z,1016.08
2022-12-27T02:45:49.831Z,1016.10
2022-12-27T02:46:49.678Z,1016.00
2022-12-27T02:47:49.624Z,1016.08
2022-12-27T02:48:49.672Z,1016.12
2022-12-27T02:49:49.591Z,1016.04
2022-12-27T02:50:49.606Z,1016.07
2022-12-27T02:51:49.622Z,1016.11
2022-12-27T02:52:49.588Z,1016.12
2022-12-27T02:53:49.574Z,1016.09
2022-12-27T02:54:49.582Z,1016.11
2022-12-27T02:55:49.517Z,1016.10
2022-12-27T02:56:49.565Z,1016.11
2022-12-27T02:57:49.546Z,1016.12
2022-12-27T02:58:49.511Z,1016.14
2022-12-27T02:59:49.485Z,1016.15
2022-12-27T03:00:49.490Z,1016.07
2022-12-27T03:01:49.585Z,1016.14
2022-12-27T03:02:49.516Z,1016.11
2022-12-27T03:03:49.467Z,1016.12
2022-12-27T03:04:49.460Z,1016.14
2022-12-27T03:05:49.388Z,1016.11
2022-12-27T03:06:49.402Z,1016.13
2022-12-27T03:07:49.386Z,1016.05
2022-12-27T03:08:49.379Z,1016.10
2022-12-27T03:09:49.597Z,1016.08
2022-12-27T03:10:49.367Z,1016.06
2022-12-27T03:11:49.305Z,1016.14
2022-12-27T03:12:49.310Z,1016.15
2022-12-27T03:13:49.310Z,1016.18
2022-12-27T03:14:49.316Z,1016.17
2022-12-27T03:15:49.324Z,1016.18
2022-12-27T03:16:49.292Z,1016.19
2022-12-27T03:17:49.221Z,1016.17
2022-12-27T03:18:49.249Z,1016.13
2022-12-27T03:19:49.216Z,1016.07
2022-12-27T03:20:49.208Z,1016.24
2022-12-27T03:21:49.319Z,1016.29
2022-12-27T03:22:49.238Z,1016.14
2022-12-27T03:23:49.133Z,1016.21
2022-12-27T03:24:49.179Z,1016.17
2022-12-27T03:25:49.119Z,1016.25
2022-12-27T03:26:49.136Z,1016.22
2022-12-27T03:27:49.142Z,1016.24
2022-12-27T03:28:49.130Z,1016.21
2022-12-27T03:29:49.064Z,1016.22
2022-12-27T03:30:49.081Z,1016.30
2022-12-27T03:31:49.057Z,1016.23
2022-12-27T03:32:49.055Z,1016.33
2022-12-27T03:33:49.076Z,1016.30
2022-12-27T03:34:49.041Z,1016.31
2022-12-27T03:35:48.974Z,1016.27
2022-12-27T03:36:49.065Z,1016.44
2022-12-27T03:37:48.976Z,1016.33
2022-12-27T03:38:48.975Z,1016.41
2022-12-27T03:39:48.987Z,1016.31
2022-12-27T03:40:48.936Z,1016.28
2022-12-27T03:41:48.924Z,1016.36
2022-12-27T03:42:48.949Z,1016.41
2022-12-27T03:43:48.894Z,1016.40
2022-12-27T03:44:48.892Z,1016.45
2022-12-27T03:45:48.904Z,1016.44
2022-12-27T03:46:48.891Z,1016.43
2022-12-27T03:47:48.826Z,1016.39
2022-12-27T03:48:48.855Z,1016.41
2022-12-27T03:49:48.798Z,1016.47
2022-12-27T03:50:48.827Z,1016.52
2022-12-27T03:51:48.831Z,1016.44
2022-12-27T03:52:48.793Z,1016.49
2022-12-27T03:53:48.775Z,1016.53
2022-12-27T03:54:48.791Z,1016.44
2022-12-27T03:55:48.718Z,1016.47
2022-12-27T03:56:48.755Z,1016.49
2022-12-27T03:57:48.719Z,1016.53
2022-12-27T03:58:48.708Z,1016.56
2022-12-27T03:59:48.694Z,1016.53
2022-12-27T04:00:48.686Z,1016.53
2022-12-27T04:01:48.716Z,1016.54
2022-12-27T04:02:48.871Z,1016.58
2022-12-27T04:03:48.719Z,1016.54
2022-12-27T04:04:48.649Z,1016.54
2022-12-27T04:05:48.581Z,1016.60
2022-12-27T04:06:48.593Z,1016.60
2022-12-27T04:07:48.586Z,1016.58
2022-12-27T04:08:48.570Z,1016.59
2022-12-27T04:09:48.585Z,1016.58
2022-12-27T04:10:48.570Z,1016.60
2022-12-27T04:11:48.512Z,1016.58
2022-12-27T04:12:48.539Z,1016.55
2022-12-27T04:13:48.472Z,1016.58
2022-12-27T04:14:48.492Z,1016.57
2022-12-27T04:15:48.621Z,1016.57
2022-12-27T04:16:48.492Z,1016.55
2022-12-27T04:17:48.414Z,1016.61
2022-12-27T04:18:48.435Z,1016.63
2022-12-27T04:19:48.421Z,1016.64
2022-12-27T04:20:48.413Z,1016.65
2022-12-27T04:21:48.512Z,1016.69
2022-12-27T04:22:48.414Z,1016.67
2022-12-27T04:23:48.335Z,1016.71
2022-12-27T04:24:48.385Z,1016.63
2022-12-27T04:25:48.315Z,1016.68
2022-12-27T04:26:48.333Z,1016.67
2022-12-27T04:27:48.434Z,1016.63
2022-12-27T04:28:48.305Z,1016.65
2022-12-27T04:29:48.282Z,1016.63
2022-12-27T04:30:48.352Z,1016.66
2022-12-27T04:31:48.284Z,1016.70
2022-12-27T04:32:48.255Z,1016.71
2022-12-27T04:33:48.273Z,1016.70
2022-12-27T04:34:48.256Z,1016.66
2022-12-27T04:35:48.180Z,1016.63
2022-12-27T04:36:48.233Z,1016.66
2022-12-27T04:37:48.158Z,1016.63
2022-12-27T04:38:48.167Z,1016.64
2022-12-27T04:39:48.255Z,1016.63
2022-12-27T04:40:48.158Z,1016.68
2022-12-27T04:41:48.124Z,1016.66
2022-12-27T04:42:48.167Z,1016.63
2022-12-27T04:43:48.096Z,1016.69
2022-12-27T04:44:48.112Z,1016.65
2022-12-27T04:45:48.080Z,1016.68
2022-12-27T04:46:48.178Z,1016.69
2022-12-27T04:47:48.054Z,1016.76
2022-12-27T04:48:48.079Z,1016.73
2022-12-27T04:49:47.988Z,1016.79
2022-12-27T04:50:48.022Z,1016.78
2022-12-27T04:51:48.104Z,1016.81
2022-12-27T04:52:48.001Z,1016.78
2022-12-27T04:53:47.973Z,1016.85
2022-12-27T04:54:47.978Z,1016.83
2022-12-27T04:55:47.912Z,1016.82
2022-12-27T04:56:47.969Z,1016.86
2022-12-27T04:57:47.928Z,1016.83
2022-12-27T04:58:47.913Z,1016.82
2022-12-27T04:59:47.886Z,1016.77
2022-12-27T05:00:47.877Z,1016.80
2022-12-27T05:01:47.979Z,1016.78
2022-12-27T05:02:48.138Z,1016.81
2022-12-27T05:03:47.950Z,1016.89
2022-12-27T05:04:47.793Z,1016.87
2022-12-27T05:05:47.835Z,1016.93
2022-12-27T05:06:47.791Z,1016.88
2022-12-27T05:07:47.887Z,1016.86
2022-12-27T05:08:47.784Z,1016.98
2022-12-27T05:09:47.876Z,1016.93
2022-12-27T05:10:47.713Z,1016.97
2022-12-27T05:11:47.756Z,1016.88
2022-12-27T05:12:47.687Z,1016.95
2022-12-27T05:13:47.721Z,1016.98
2022-12-27T05:14:47.687Z,1016.97
2022-12-27T05:15:47.732Z,1016.95
2022-12-27T05:16:47.672Z,1016.98
2022-12-27T05:17:47.650Z,1016.98
2022-12-27T05:18:47.613Z,1016.96
2022-12-27T05:19:47.643Z,1016.94
2022-12-27T05:20:47.609Z,1017.04
2022-12-27T05:21:47.627Z,1016.98
2022-12-27T05:22:47.558Z,1017.02
2022-12-27T05:23:47.614Z,1017.04
2022-12-27T05:24:47.526Z,1017.07
2022-12-27T05:25:47.592Z,1017.07
2022-12-27T05:26:47.529Z,1017.12
2022-12-27T05:27:47.627Z,1017.07
2022-12-27T05:28:47.501Z,1017.12
2022-12-27T05:29:47.484Z,1017.11
2022-12-27T05:30:47.453Z,1017.14
2022-12-27T05:31:47.507Z,1017.14
2022-12-27T05:32:47.421Z,1017.13
2022-12-27T05:33:47.609Z,1017.14
2022-12-27T05:34:47.427Z,1017.16
2022-12-27T05:35:47.403Z,1017.21
2022-12-27T05:36:47.387Z,1017.25
2022-12-27T05:37:51.531Z,1017.19
2022-12-27T05:38:48.397Z,1017.21
2022-12-27T05:39:47.380Z,1017.22
2022-12-27T05:40:47.338Z,1017.17
2022-12-27T05:41:47.329Z,1017.23
2022-12-27T05:42:47.309Z,1017.27
2022-12-27T05:43:47.349Z,1017.25
2022-12-27T05:44:47.282Z,1017.30
2022-12-27T05:45:47.435Z,1017.23
2022-12-27T05:46:47.288Z,1017.27
2022-12-27T05:47:47.259Z,1017.35
2022-12-27T05:48:47.234Z,1017.32
2022-12-27T05:49:47.216Z,1017.32
2022-12-27T05:50:47.173Z,1017.29
2022-12-27T05:51:47.269Z,1017.34
2022-12-27T05:52:47.171Z,1017.28
2022-12-27T05:53:47.171Z,1017.35
2022-12-27T05:54:47.129Z,1017.30
2022-12-27T05:55:47.163Z,1017.38
2022-12-27T05:56:47.102Z,1017.38
2022-12-27T05:57:47.182Z,1017.38
2022-12-27T05:58:47.146Z,1017.37
2022-12-27T05:59:47.094Z,1017.39
2022-12-27T06:00:47.088Z,1017.38
2022-12-27T06:01:47.229Z,1017.41
2022-12-27T06:02:47.172Z,1017.44
2022-12-27T06:03:47.091Z,1017.43
2022-12-27T06:04:46.993Z,1017.47
2022-12-27T06:05:47.018Z,1017.53
2022-12-27T06:06:46.989Z,1017.47
2022-12-27T06:07:46.978Z,1017.39
2022-12-27T06:08:47.020Z,1017.42
2022-12-27T06:09:46.990Z,1017.47
2022-12-27T06:10:46.919Z,1017.55
2022-12-27T06:11:46.946Z,1017.53
2022-12-27T06:12:46.887Z,1017.56
2022-12-27T06:13:46.930Z,1017.49
2022-12-27T06:14:46.913Z,1017.52
2022-12-27T06:15:46.991Z,1017.66
2022-12-27T06:16:46.883Z,1017.67
2022-12-27T06:17:46.845Z,1017.63
2022-12-27T06:18:46.810Z,1017.74
2022-12-27T06:19:48.443Z,1017.68
2022-12-27T06:20:46.786Z,1017.72
2022-12-27T06:21:46.855Z,1017.70
2022-12-27T06:22:46.780Z,1017.71
2022-12-27T06:23:46.775Z,1017.78
2022-12-27T06:24:46.732Z,1017.72
2022-12-27T06:25:46.776Z,1017.70
2022-12-27T06:26:46.760Z,1017.73
2022-12-27T06:27:46.823Z,1017.72
2022-12-27T06:28:46.709Z,1017.75
2022-12-27T06:29:46.690Z,1017.73
2022-12-27T06:30:46.660Z,1017.73
2022-12-27T06:31:46.752Z,1017.80
2022-12-27T06:32:46.616Z,1017.77
2022-12-27T06:33:46.727Z,1017.73
2022-12-27T06:34:46.629Z,1017.78
2022-12-27T06:35:46.607Z,1017.84
2022-12-27T06:36:46.602Z,1017.77
2022-12-27T06:37:46.583Z,1017.72
2022-12-27T06:38:46.538Z,1017.80
2022-12-27T06:39:46.614Z,1017.91
2022-12-27T06:40:46.546Z,1017.81
2022-12-27T06:41:46.543Z,1017.76
2022-12-27T06:42:46.500Z,1017.80
2022-12-27T06:43:46.545Z,1017.80
2022-12-27T06:44:46.473Z,1017.82
2022-12-27T06:45:46.577Z,1017.87
2022-12-27T06:46:46.470Z,1017.89
2022-12-27T06:47:46.475Z,1017.90
2022-12-27T06:48:46.479Z,1017.87
2022-12-27T06:49:46.454Z,1017.95
2022-12-27T06:50:46.390Z,1017.88
2022-12-27T06:51:46.475Z,1017.95
2022-12-27T06:52:48.268Z,1017.96
2022-12-27T06:53:49.348Z,1018.00
2022-12-27T06:54:51.771Z,1018.01
2022-12-27T06:55:59.871Z,1017.99
2022-12-27T06:56:59.001Z,1018.01
2022-12-27T06:57:46.452Z,1018.03
2022-12-27T06:58:46.374Z,1017.99
2022-12-27T06:59:50.969Z,1018.02
2022-12-27T07:00:47.347Z,1018.13
2022-12-27T07:01:46.583Z,1018.12
2022-12-27T07:02:59.986Z,1018.14
2022-12-27T07:03:46.310Z,1018.10
2022-12-27T07:04:46.236Z,1018.15
2022-12-27T07:05:46.241Z,1018.14
2022-12-27T07:06:46.262Z,1018.18
2022-12-27T07:07:46.221Z,1018.24
2022-12-27T07:08:46.219Z,1018.21
2022-12-27T07:09:46.223Z,1018.24
2022-12-27T07:10:46.141Z,1018.26
2022-12-27T07:11:46.165Z,1018.30
2022-12-27T07:12:46.120Z,1018.27
2022-12-27T07:13:46.168Z,1018.30
2022-12-27T07:14:46.133Z,1018.27
2022-12-27T07:15:46.125Z,1018.28
2022-12-27T07:16:46.298Z,1018.32
2022-12-27T07:17:46.091Z,1018.36
2022-12-27T07:18:46.587Z,1018.42
2022-12-27T07:19:46.083Z,1018.47
2022-12-27T07:20:46.000Z,1018.41
2022-12-27T07:21:46.068Z,1018.51
2022-12-27T07:22:45.989Z,1018.49
2022-12-27T07:23:45.991Z,1018.48
2022-12-27T07:24:45.991Z,1018.48
2022-12-27T07:25:45.981Z,1018.51
2022-12-27T07:26:45.929Z,1018.47
2022-12-27T07:27:46.097Z,1018.51
2022-12-27T07:28:45.915Z,1018.50
2022-12-27T07:29:46.058Z,1018.50
2022-12-27T07:30:45.891Z,1018.49
2022-12-27T07:31:45.962Z,1018.48
2022-12-27T07:32:45.931Z,1018.55
2022-12-27T07:33:46.007Z,1018.55
2022-12-27T07:34:45.855Z,1018.57
2022-12-27T07:35:45.839Z,1018.59
2022-12-27T07:36:45.826Z,1018.73
2022-12-27T07:37:45.821Z,1018.64
2022-12-27T07:38:45.777Z,1018.65
2022-12-27T07:39:45.844Z,1018.67
2022-12-27T07:40:45.734Z,1018.64
2022-12-27T07:41:45.779Z,1018.61
2022-12-27T07:42:45.771Z,1018.63
2022-12-27T07:43:45.743Z,1018.61
2022-12-27T07:44:45.707Z,1018.65
2022-12-27T07:45:45.793Z,1018.62
2022-12-27T07:46:45.689Z,1018.61
2022-12-27T07:47:45.664Z,1018.64
2022-12-27T07:48:45.657Z,1018.71
2022-12-27T07:49:45.691Z,1018.80
2022-12-27T07:50:45.596Z,1018.75
2022-12-27T07:51:45.686Z,1018.70
2022-12-27T07:52:45.578Z,1018.78
2022-12-27T07:53:45.621Z,1018.81
2022-12-27T07:54:45.591Z,1018.91
2022-12-27T07:55:45.556Z,1018.89
2022-12-27T07:56:45.568Z,1019.01
2022-12-27T07:57:45.600Z,1018.88
2022-12-27T07:58:45.497Z,1018.89
2022-12-27T07:59:45.550Z,1018.87
2022-12-27T08:00:45.515Z,1018.99
2022-12-27T08:01:45.566Z,1018.93
2022-12-27T08:02:45.460Z,1019.01
2022-12-27T08:03:45.624Z,1019.06
2022-12-27T08:04:45.444Z,1018.99
2022-12-27T08:05:45.475Z,1019.01
2022-12-27T08:06:45.443Z,1019.06
2022-12-27T08:07:45.411Z,1019.04
2022-12-27T08:08:45.390Z,1019.06
2022-12-27T08:09:45.418Z,1019.07
2022-12-27T08:10:45.352Z,1019.10
2022-12-27T08:11:45.386Z,1019.00
2022-12-27T08:12:45.314Z,1019.04
2022-12-27T08:13:45.388Z,1019.08
2022-12-27T08:14:45.330Z,1019.06
2022-12-27T08:15:45.370Z,1019.06
2022-12-27T08:16:45.307Z,1019.06
2022-12-27T08:17:45.285Z,1019.01
2022-12-27T08:18:45.244Z,1019.01
2022-12-27T08:19:45.280Z,1019.05
2022-12-27T08:20:45.214Z,1019.01
2022-12-27T08:21:45.278Z,1019.03
2022-12-27T08:22:45.210Z,1019.07
2022-12-27T08:23:45.202Z,1019.06
2022-12-27T08:24:45.179Z,1019.06
2022-12-27T08:25:48.733Z,1019.04
2022-12-27T08:26:45.124Z,1019.07
2022-12-27T08:27:45.222Z,1019.06
2022-12-27T08:28:45.135Z,1019.08
2022-12-27T08:29:45.155Z,1019.13
2022-12-27T08:30:45.129Z,1019.14
2022-12-27T08:31:45.144Z,1019.14
2022-12-27T08:32:45.057Z,1019.16
2022-12-27T08:33:45.153Z,1019.21
2022-12-27T08:34:45.042Z,1019.22
2022-12-27T08:35:54.047Z,1019.27
2022-12-27T08:36:55.158Z,1019.26
2022-12-27T08:37:46.022Z,1019.29
2022-12-27T08:38:44.957Z,1019.29
2022-12-27T08:39:45.143Z,1019.27
2022-12-27T08:40:44.977Z,1019.35
2022-12-27T08:41:44.983Z,1019.38
2022-12-27T08:42:44.946Z,1019.38
2022-12-27T08:43:44.937Z,1019.41
2022-12-27T08:44:44.919Z,1019.38
2022-12-27T08:45:44.997Z,1019.48
2022-12-27T08:46:44.952Z,1019.47
2022-12-27T08:47:44.937Z,1019.49
2022-12-27T08:48:44.900Z,1019.51
2022-12-27T08:49:44.897Z,1019.47
2022-12-27T08:50:44.821Z,1019.47
2022-12-27T08:51:44.915Z,1019.45
2022-12-27T08:52:44.790Z,1019.41
2022-12-27T08:53:44.842Z,1019.46
2022-12-27T08:54:44.775Z,1019.44
2022-12-27T08:55:44.773Z,1019.41
2022-12-27T08:56:44.767Z,1019.42
2022-12-27T08:57:44.791Z,1019.45
2022-12-27T08:58:44.695Z,1019.38
2022-12-27T08:59:44.730Z,1019.40
2022-12-27T09:00:44.695Z,1019.47
2022-12-27T09:01:44.806Z,1019.43
2022-12-27T09:02:44.834Z,1019.46
2022-12-27T09:03:44.663Z,1019.52
2022-12-27T09:04:44.607Z,1019.52
2022-12-27T09:05:44.649Z,1019.52
2022-12-27T09:06:44.607Z,1019.56
2022-12-27T09:07:44.594Z,1019.58
2022-12-27T09:08:44.571Z,1019.56
2022-12-27T09:09:44.677Z,1019.55
2022-12-27T09:10:44.516Z,1019.57
2022-12-27T09:11:44.564Z,1019.53
2022-12-27T09:12:44.494Z,1019.53
2022-12-27T09:13:44.541Z,1019.54
2022-12-27T09:14:44.494Z,1019.51
2022-12-27T09:15:44.611Z,1019.51
2022-12-27T09:16:44.465Z,1019.53
2022-12-27T09:17:44.457Z,1019.47
2022-12-27T09:18:44.405Z,1019.46
2022-12-27T09:19:44.458Z,1019.52
2022-12-27T09:20:44.408Z,1019.55
2022-12-27T09:21:44.437Z,1019.58
2022-12-27T09:22:44.413Z,1019.59
2022-12-27T09:23:44.350Z,1019.60
2022-12-27T09:24:44.386Z,1019.62
2022-12-27T09:25:44.404Z,1019.62
2022-12-27T09:26:44.347Z,1019.59
2022-12-27T09:27:44.345Z,1019.61
2022-12-27T09:28:44.320Z,1019.62
2022-12-27T09:29:48.217Z,1019.64
2022-12-27T09:30:44.375Z,1019.66
2022-12-27T09:31:44.232Z,1019.69
2022-12-27T09:32:44.277Z,1019.67
2022-12-27T09:33:44.258Z,1019.70
2022-12-27T09:34:44.223Z,1019.77
2022-12-27T09:35:44.211Z,1019.73
2022-12-27T09:36:44.228Z,1019.78
2022-12-27T09:37:44.151Z,1019.79
2022-12-27T09:38:44.176Z,1019.80
2022-12-27T09:39:44.258Z,1019.80
2022-12-27T09:40:44.142Z,1019.90
2022-12-27T09:42:56.690Z,1019.80
2022-12-27T09:43:45.073Z,1019.83
2022-12-27T09:44:44.119Z,1019.78
2022-12-27T09:45:44.166Z,1019.79
2022-12-27T09:46:44.098Z,1019.77
2022-12-27T09:47:44.041Z,1019.75
2022-12-27T09:48:44.025Z,1019.81
2022-12-27T09:49:44.040Z,1019.78
2022-12-27T09:50:44.032Z,1019.78
2022-12-27T09:51:44.086Z,1019.81
2022-12-27T09:52:43.981Z,1019.81
2022-12-27T09:53:43.961Z,1019.78
2022-12-27T09:54:44.004Z,1019.79
2022-12-27T09:55:43.908Z,1019.76
2022-12-27T09:57:44.997Z,1019.74
2022-12-27T09:58:43.899Z,1019.74
2022-12-27T09:59:44.365Z,1019.73
2022-12-27T10:00:46.460Z,1019.77
2022-12-27T10:01:43.918Z,1019.65
2022-12-27T10:02:43.980Z,1019.67
2022-12-27T10:03:43.939Z,1019.69
2022-12-27T10:05:18.702Z,1019.69
2022-12-27T10:05:44.825Z,1019.74
2022-12-27T10:06:44.095Z,1019.76
2022-12-27T10:07:43.768Z,1019.72
2022-12-27T10:08:43.832Z,1019.74
2022-12-27T10:09:43.773Z,1019.80
2022-12-27T10:10:43.746Z,1019.80
2022-12-27T10:11:43.735Z,1019.89
2022-12-27T10:12:43.701Z,1019.83
2022-12-27T10:13:43.687Z,1019.87
2022-12-27T10:14:43.713Z,1019.86
2022-12-27T10:15:43.703Z,1019.83
2022-12-27T10:16:43.677Z,1019.87
2022-12-27T10:17:48.070Z,1019.84
2022-12-27T10:18:44.621Z,1019.90
2022-12-27T10:19:43.607Z,1019.87
2022-12-27T10:20:43.592Z,1019.84
2022-12-27T10:21:43.598Z,1019.90
2022-12-27T10:22:43.590Z,1019.90
2022-12-27T10:23:43.533Z,1019.89
2022-12-27T10:24:43.575Z,1019.92
2022-12-27T10:25:43.492Z,1019.90
2022-12-27T10:26:43.512Z,1019.93
2022-12-27T10:27:43.529Z,1019.96
2022-12-27T10:28:43.483Z,1019.95
2022-12-27T10:29:43.481Z,1020.02
2022-12-27T10:30:43.491Z,1019.97
2022-12-27T10:31:43.498Z,1019.93
2022-12-27T10:32:43.461Z,1020.03
2022-12-27T10:33:43.415Z,1019.99
2022-12-27T10:34:43.402Z,1020.04
2022-12-27T10:35:43.391Z,1019.94
2022-12-27T10:36:43.382Z,1020.00
2022-12-27T10:37:43.363Z,1020.00
2022-12-27T10:38:43.388Z,1020.01
2022-12-27T10:39:43.351Z,1020.03
2022-12-27T10:40:43.318Z,1020.04
2022-12-27T10:41:43.304Z,1020.07
2022-12-27T10:42:43.326Z,1019.97
2022-12-27T10:43:43.262Z,1020.02
2022-12-27T10:44:43.294Z,1020.02
2022-12-27T10:45:43.262Z,1020.02
2022-12-27T10:46:43.273Z,1019.89
2022-12-27T10:47:43.227Z,1019.88
2022-12-27T10:49:19.579Z,1019.88
2022-12-27T10:49:44.217Z,1019.85
2022-12-27T10:50:43.216Z,1019.87
2022-12-27T10:51:43.169Z,1019.84
2022-12-27T10:52:43.197Z,1019.83
2022-12-27T10:53:43.120Z,1019.81
2022-12-27T10:54:43.129Z,1019.79
2022-12-27T10:55:43.118Z,1019.86
2022-12-27T10:56:43.139Z,1019.79
2022-12-27T10:57:43.196Z,1019.74
2022-12-27T10:58:43.085Z,1019.78
2022-12-27T10:59:43.067Z,1019.77
2022-12-27T11:00:43.070Z,1019.79
2022-12-27T11:01:43.132Z,1019.81
2022-12-27T11:02:43.161Z,1019.79
2022-12-27T11:03:43.023Z,1019.77
2022-12-27T11:04:43.030Z,1019.78
2022-12-27T11:05:42.963Z,1019.74
2022-12-27T11:06:42.973Z,1019.78
2022-12-27T11:07:42.961Z,1019.84
2022-12-27T11:08:42.961Z,1019.83
2022-12-27T11:09:48.391Z,1019.86
2022-12-27T11:10:43.950Z,1019.82
2022-12-27T11:11:42.884Z,1019.83
2022-12-27T11:12:42.895Z,1019.84
2022-12-27T11:13:42.906Z,1019.92
2022-12-27T11:14:42.901Z,1019.91
2022-12-27T11:15:42.868Z,1019.96
2022-12-27T11:16:42.903Z,1020.04
2022-12-27T11:17:42.806Z,1019.98
2022-12-27T11:18:42.829Z,1020.07
2022-12-27T11:19:42.803Z,1020.03
2022-12-27T11:20:42.806Z,1020.07
2022-12-27T11:21:42.804Z,1020.10
2022-12-27T11:22:42.794Z,1020.16
2022-12-27T11:23:42.732Z,1020.13
2022-12-27T11:24:42.764Z,1020.10
2022-12-27T11:25:42.698Z,1020.11
2022-12-27T11:26:42.720Z,1020.06
2022-12-27T11:27:42.807Z,1020.08
2022-12-27T11:28:42.697Z,1020.17
2022-12-27T11:29:42.676Z,1020.12
2022-12-27T11:30:42.688Z,1020.15
2022-12-27T11:31:42.763Z,1020.10
2022-12-27T11:32:42.671Z,1020.03
2022-12-27T11:33:42.620Z,1020.13
2022-12-27T11:34:42.610Z,1020.09
2022-12-27T11:35:42.611Z,1020.14
2022-12-27T11:36:42.587Z,1020.07
2022-12-27T11:37:42.566Z,1020.15
2022-12-27T11:38:42.609Z,1020.03
2022-12-27T11:39:42.572Z,1020.13
2022-12-27T11:40:42.559Z,1020.07
2022-12-27T11:41:43.447Z,1020.12
2022-12-27T11:42:42.504Z,1020.13
2022-12-27T11:43:42.508Z,1020.13
2022-12-27T11:44:42.532Z,1020.09
2022-12-27T11:45:42.541Z,1020.07
2022-12-27T11:46:42.471Z,1020.07
2022-12-27T11:47:42.431Z,1020.05
2022-12-27T11:48:42.443Z,1020.10
2022-12-27T11:49:42.412Z,1020.04
2022-12-27T11:50:42.420Z,1020.10
2022-12-27T11:51:42.388Z,1020.05
2022-12-27T11:52:42.400Z,1020.11
2022-12-27T11:53:42.327Z,1020.07
2022-12-27T11:54:42.351Z,1020.09
2022-12-27T11:55:42.332Z,1020.14
2022-12-27T11:56:42.313Z,1020.13
2022-12-27T11:57:42.321Z,1020.11
2022-12-27T11:58:42.319Z,1020.09
2022-12-27T11:59:42.250Z,1020.06
2022-12-27T12:00:42.267Z,1020.05
2022-12-27T12:01:42.304Z,1020.06
2022-12-27T12:02:42.291Z,1020.01
2022-12-27T12:03:42.344Z,1019.96
2022-12-27T12:04:42.233Z,1019.94
2022-12-27T12:05:42.164Z,1019.94
2022-12-27T12:06:42.179Z,1019.92
2022-12-27T12:07:42.179Z,1019.97